sensor_id;sensor_type;location;lat;lon;timestamp;P1;durP1;ratioP1;P2;durP2;ratioP2
40453;SDS011;26160;51.858;4.398;2023-07-09T00:01:14;12.63;;;11.13;;
40453;SDS011;26160;51.858;4.398;2023-07-09T00:03:46;13.82;;;11.07;;
40453;SDS011;26160;51.858;4.398;2023-07-09T00:06:17;12.77;;;10.48;;
40453;SDS011;26160;51.858;4.398;2023-07-09T00:08:44;13.38;;;10.48;;
40453;SDS011;26160;51.858;4.398;2023-07-09T00:11:14;13.75;;;11.43;;
40453;SDS011;26160;51.858;4.398;2023-07-09T00:13:41;14.65;;;11.05;;
40453;SDS011;26160;51.858;4.398;2023-07-09T00:16:14;14.60;;;11.25;;
40453;SDS011;26160;51.858;4.398;2023-07-09T00:18:44;11.88;;;10.68;;
40453;SDS011;26160;51.858;4.398;2023-07-09T00:21:10;13.45;;;11.68;;
40453;SDS011;26160;51.858;4.398;2023-07-09T00:23:36;13.32;;;10.70;;
40453;SDS011;26160;51.858;4.398;2023-07-09T00:26:10;13.18;;;10.60;;
40453;SDS011;26160;51.858;4.398;2023-07-09T00:28:42;13.98;;;10.90;;
40453;SDS011;26160;51.858;4.398;2023-07-09T00:31:10;16.58;;;12.05;;
40453;SDS011;26160;51.858;4.398;2023-07-09T00:33:41;13.25;;;11.85;;
40453;SDS011;26160;51.858;4.398;2023-07-09T00:36:13;14.25;;;12.00;;
40453;SDS011;26160;51.858;4.398;2023-07-09T00:38:54;15.38;;;11.85;;
40453;SDS011;26160;51.858;4.398;2023-07-09T00:41:25;12.18;;;10.88;;
40453;SDS011;26160;51.858;4.398;2023-07-09T00:43:51;14.77;;;11.45;;
40453;SDS011;26160;51.858;4.398;2023-07-09T00:48:50;13.07;;;10.55;;
40453;SDS011;26160;51.858;4.398;2023-07-09T00:54:23;12.88;;;10.82;;
40453;SDS011;26160;51.858;4.398;2023-07-09T00:57:11;12.20;;;10.23;;
40453;SDS011;26160;51.858;4.398;2023-07-09T00:59:42;14.00;;;11.27;;
40453;SDS011;26160;51.858;4.398;2023-07-09T01:02:13;11.98;;;10.20;;
40453;SDS011;26160;51.858;4.398;2023-07-09T01:04:40;13.05;;;10.80;;
40453;SDS011;26160;51.858;4.398;2023-07-09T01:07:07;13.30;;;10.98;;
40453;SDS011;26160;51.858;4.398;2023-07-09T01:09:34;14.45;;;10.38;;
40453;SDS011;26160;51.858;4.398;2023-07-09T01:12:06;11.35;;;9.90;;
40453;SDS011;26160;51.858;4.398;2023-07-09T01:14:34;14.40;;;10.95;;
40453;SDS011;26160;51.858;4.398;2023-07-09T01:17:03;11.73;;;10.50;;
40453;SDS011;26160;51.858;4.398;2023-07-09T01:19:37;14.75;;;11.48;;
40453;SDS011;26160;51.858;4.398;2023-07-09T01:22:09;12.98;;;10.00;;
40453;SDS011;26160;51.858;4.398;2023-07-09T01:27:29;13.65;;;11.25;;
40453;SDS011;26160;51.858;4.398;2023-07-09T01:30:29;14.52;;;10.63;;
40453;SDS011;26160;51.858;4.398;2023-07-09T01:35:23;12.48;;;10.43;;
40453;SDS011;26160;51.858;4.398;2023-07-09T01:37:51;12.90;;;11.55;;
40453;SDS011;26160;51.858;4.398;2023-07-09T01:40:18;12.10;;;10.73;;
40453;SDS011;26160;51.858;4.398;2023-07-09T01:42:46;13.98;;;11.35;;
40453;SDS011;26160;51.858;4.398;2023-07-09T01:45:12;12.88;;;11.00;;
40453;SDS011;26160;51.858;4.398;2023-07-09T01:47:39;13.77;;;11.00;;
40453;SDS011;26160;51.858;4.398;2023-07-09T01:50:05;12.52;;;10.98;;
40453;SDS011;26160;51.858;4.398;2023-07-09T01:52:33;14.20;;;11.45;;
40453;SDS011;26160;51.858;4.398;2023-07-09T01:55:00;15.55;;;10.50;;
40453;SDS011;26160;51.858;4.398;2023-07-09T01:57:28;13.88;;;10.88;;
40453;SDS011;26160;51.858;4.398;2023-07-09T01:59:58;12.45;;;10.25;;
40453;SDS011;26160;51.858;4.398;2023-07-09T02:02:27;13.55;;;11.02;;
40453;SDS011;26160;51.858;4.398;2023-07-09T02:04:54;12.55;;;10.98;;
40453;SDS011;26160;51.858;4.398;2023-07-09T02:07:22;12.38;;;10.30;;
40453;SDS011;26160;51.858;4.398;2023-07-09T02:09:49;13.63;;;10.73;;
40453;SDS011;26160;51.858;4.398;2023-07-09T02:12:16;13.68;;;11.77;;
40453;SDS011;26160;51.858;4.398;2023-07-09T02:14:43;14.95;;;12.23;;
40453;SDS011;26160;51.858;4.398;2023-07-09T02:17:11;14.05;;;11.95;;
40453;SDS011;26160;51.858;4.398;2023-07-09T02:19:39;16.23;;;12.70;;
40453;SDS011;26160;51.858;4.398;2023-07-09T02:22:05;15.65;;;11.82;;
40453;SDS011;26160;51.858;4.398;2023-07-09T02:24:32;15.05;;;11.73;;
40453;SDS011;26160;51.858;4.398;2023-07-09T02:26:59;13.18;;;11.20;;
40453;SDS011;26160;51.858;4.398;2023-07-09T02:29:28;13.55;;;11.30;;
40453;SDS011;26160;51.858;4.398;2023-07-09T02:31:56;15.07;;;11.38;;
40453;SDS011;26160;51.858;4.398;2023-07-09T02:34:26;15.27;;;12.05;;
40453;SDS011;26160;51.858;4.398;2023-07-09T02:36:54;16.48;;;12.30;;
40453;SDS011;26160;51.858;4.398;2023-07-09T02:39:21;13.45;;;12.05;;
40453;SDS011;26160;51.858;4.398;2023-07-09T02:41:48;16.00;;;10.98;;
40453;SDS011;26160;51.858;4.398;2023-07-09T02:44:15;12.38;;;10.75;;
40453;SDS011;26160;51.858;4.398;2023-07-09T02:46:45;15.32;;;12.75;;
40453;SDS011;26160;51.858;4.398;2023-07-09T02:49:12;13.30;;;10.82;;
40453;SDS011;26160;51.858;4.398;2023-07-09T02:51:39;15.57;;;12.70;;
40453;SDS011;26160;51.858;4.398;2023-07-09T02:54:05;13.43;;;10.93;;
40453;SDS011;26160;51.858;4.398;2023-07-09T02:56:32;11.95;;;10.60;;
40453;SDS011;26160;51.858;4.398;2023-07-09T02:58:59;12.52;;;11.05;;
40453;SDS011;26160;51.858;4.398;2023-07-09T03:01:25;14.30;;;11.52;;
40453;SDS011;26160;51.858;4.398;2023-07-09T03:03:53;13.85;;;12.13;;
40453;SDS011;26160;51.858;4.398;2023-07-09T03:06:20;15.55;;;12.77;;
40453;SDS011;26160;51.858;4.398;2023-07-09T03:08:48;12.55;;;10.85;;
40453;SDS011;26160;51.858;4.398;2023-07-09T03:11:15;12.43;;;11.13;;
40453;SDS011;26160;51.858;4.398;2023-07-09T03:13:42;12.90;;;10.63;;
40453;SDS011;26160;51.858;4.398;2023-07-09T03:16:10;16.10;;;11.10;;
40453;SDS011;26160;51.858;4.398;2023-07-09T03:18:36;12.30;;;11.00;;
40453;SDS011;26160;51.858;4.398;2023-07-09T03:21:03;14.30;;;10.95;;
40453;SDS011;26160;51.858;4.398;2023-07-09T03:23:30;20.35;;;12.68;;
40453;SDS011;26160;51.858;4.398;2023-07-09T03:25:56;15.90;;;11.73;;
40453;SDS011;26160;51.858;4.398;2023-07-09T03:28:25;14.50;;;11.52;;
40453;SDS011;26160;51.858;4.398;2023-07-09T03:30:53;15.80;;;10.45;;
40453;SDS011;26160;51.858;4.398;2023-07-09T03:33:20;15.07;;;12.68;;
40453;SDS011;26160;51.858;4.398;2023-07-09T03:35:47;12.02;;;10.65;;
40453;SDS011;26160;51.858;4.398;2023-07-09T03:38:13;11.65;;;9.95;;
40453;SDS011;26160;51.858;4.398;2023-07-09T03:40:39;12.15;;;9.82;;
40453;SDS011;26160;51.858;4.398;2023-07-09T03:43:05;12.52;;;10.50;;
40453;SDS011;26160;51.858;4.398;2023-07-09T03:45:33;12.52;;;10.15;;
40453;SDS011;26160;51.858;4.398;2023-07-09T03:48:01;12.13;;;10.55;;
40453;SDS011;26160;51.858;4.398;2023-07-09T03:50:31;12.00;;;10.65;;
40453;SDS011;26160;51.858;4.398;2023-07-09T03:52:58;11.90;;;10.23;;
40453;SDS011;26160;51.858;4.398;2023-07-09T03:55:25;15.90;;;10.70;;
40453;SDS011;26160;51.858;4.398;2023-07-09T03:57:55;15.73;;;10.50;;
40453;SDS011;26160;51.858;4.398;2023-07-09T04:00:22;12.50;;;9.35;;
40453;SDS011;26160;51.858;4.398;2023-07-09T04:02:50;15.23;;;11.40;;
40453;SDS011;26160;51.858;4.398;2023-07-09T04:05:31;12.98;;;10.65;;
40453;SDS011;26160;51.858;4.398;2023-07-09T04:07:57;14.93;;;10.38;;
40453;SDS011;26160;51.858;4.398;2023-07-09T04:10:24;11.15;;;9.43;;
40453;SDS011;26160;51.858;4.398;2023-07-09T04:12:50;12.77;;;9.98;;
40453;SDS011;26160;51.858;4.398;2023-07-09T04:15:20;14.35;;;9.75;;
40453;SDS011;26160;51.858;4.398;2023-07-09T04:17:46;13.60;;;11.90;;
40453;SDS011;26160;51.858;4.398;2023-07-09T04:20:12;13.40;;;10.13;;
40453;SDS011;26160;51.858;4.398;2023-07-09T04:22:39;11.30;;;10.07;;
40453;SDS011;26160;51.858;4.398;2023-07-09T04:25:06;13.68;;;10.38;;
40453;SDS011;26160;51.858;4.398;2023-07-09T04:27:35;14.02;;;10.50;;
40453;SDS011;26160;51.858;4.398;2023-07-09T04:30:02;12.82;;;10.05;;
40453;SDS011;26160;51.858;4.398;2023-07-09T04:32:30;13.50;;;10.07;;
40453;SDS011;26160;51.858;4.398;2023-07-09T04:34:56;15.35;;;10.13;;
40453;SDS011;26160;51.858;4.398;2023-07-09T04:37:26;13.20;;;9.15;;
40453;SDS011;26160;51.858;4.398;2023-07-09T04:39:52;15.18;;;10.38;;
40453;SDS011;26160;51.858;4.398;2023-07-09T04:42:18;12.35;;;10.02;;
40453;SDS011;26160;51.858;4.398;2023-07-09T04:44:44;10.98;;;9.07;;
40453;SDS011;26160;51.858;4.398;2023-07-09T04:47:11;12.63;;;10.50;;
40453;SDS011;26160;51.858;4.398;2023-07-09T04:49:38;13.77;;;10.43;;
40453;SDS011;26160;51.858;4.398;2023-07-09T04:52:04;11.77;;;9.93;;
40453;SDS011;26160;51.858;4.398;2023-07-09T04:54:31;16.42;;;10.85;;
40453;SDS011;26160;51.858;4.398;2023-07-09T04:56:58;11.38;;;9.52;;
40453;SDS011;26160;51.858;4.398;2023-07-09T04:59:24;11.63;;;8.45;;
40453;SDS011;26160;51.858;4.398;2023-07-09T05:01:50;10.68;;;9.18;;
40453;SDS011;26160;51.858;4.398;2023-07-09T05:04:16;11.77;;;9.75;;
40453;SDS011;26160;51.858;4.398;2023-07-09T05:06:43;15.88;;;11.35;;
40453;SDS011;26160;51.858;4.398;2023-07-09T05:09:09;16.60;;;10.25;;
40453;SDS011;26160;51.858;4.398;2023-07-09T05:11:35;12.65;;;9.88;;
40453;SDS011;26160;51.858;4.398;2023-07-09T05:14:02;16.17;;;12.13;;
40453;SDS011;26160;51.858;4.398;2023-07-09T05:16:30;14.82;;;11.63;;
40453;SDS011;26160;51.858;4.398;2023-07-09T05:18:56;13.27;;;10.32;;
40453;SDS011;26160;51.858;4.398;2023-07-09T05:21:22;13.50;;;9.65;;
40453;SDS011;26160;51.858;4.398;2023-07-09T05:23:48;10.68;;;9.50;;
40453;SDS011;26160;51.858;4.398;2023-07-09T05:26:14;13.75;;;10.13;;
40453;SDS011;26160;51.858;4.398;2023-07-09T05:28:40;11.25;;;9.32;;
40453;SDS011;26160;51.858;4.398;2023-07-09T05:31:06;14.05;;;10.23;;
40453;SDS011;26160;51.858;4.398;2023-07-09T05:33:33;20.80;;;14.13;;
40453;SDS011;26160;51.858;4.398;2023-07-09T05:35:59;19.67;;;15.27;;
40453;SDS011;26160;51.858;4.398;2023-07-09T05:38:25;27.50;;;20.73;;
40453;SDS011;26160;51.858;4.398;2023-07-09T05:41:01;25.98;;;20.35;;
40453;SDS011;26160;51.858;4.398;2023-07-09T05:43:29;22.50;;;18.65;;
40453;SDS011;26160;51.858;4.398;2023-07-09T05:45:56;20.63;;;18.23;;
40453;SDS011;26160;51.858;4.398;2023-07-09T05:48:22;22.48;;;19.05;;
40453;SDS011;26160;51.858;4.398;2023-07-09T05:50:52;26.67;;;21.70;;
40453;SDS011;26160;51.858;4.398;2023-07-09T05:53:20;27.23;;;23.80;;
40453;SDS011;26160;51.858;4.398;2023-07-09T05:55:47;25.45;;;20.70;;
40453;SDS011;26160;51.858;4.398;2023-07-09T05:58:16;24.58;;;18.90;;
40453;SDS011;26160;51.858;4.398;2023-07-09T06:00:42;24.13;;;17.20;;
40453;SDS011;26160;51.858;4.398;2023-07-09T06:03:09;22.13;;;18.67;;
40453;SDS011;26160;51.858;4.398;2023-07-09T06:05:35;20.80;;;17.02;;
40453;SDS011;26160;51.858;4.398;2023-07-09T06:08:02;20.92;;;18.17;;
40453;SDS011;26160;51.858;4.398;2023-07-09T06:10:29;20.95;;;16.50;;
40453;SDS011;26160;51.858;4.398;2023-07-09T06:12:58;18.52;;;14.82;;
40453;SDS011;26160;51.858;4.398;2023-07-09T06:15:25;23.58;;;16.20;;
40453;SDS011;26160;51.858;4.398;2023-07-09T06:17:51;19.67;;;16.40;;
40453;SDS011;26160;51.858;4.398;2023-07-09T06:20:17;21.83;;;16.17;;
40453;SDS011;26160;51.858;4.398;2023-07-09T06:22:44;18.40;;;15.55;;
40453;SDS011;26160;51.858;4.398;2023-07-09T06:25:10;16.08;;;13.60;;
40453;SDS011;26160;51.858;4.398;2023-07-09T06:27:36;18.20;;;13.52;;
40453;SDS011;26160;51.858;4.398;2023-07-09T06:30:02;14.77;;;11.68;;
40453;SDS011;26160;51.858;4.398;2023-07-09T06:32:29;15.43;;;11.93;;
40453;SDS011;26160;51.858;4.398;2023-07-09T06:34:55;14.50;;;12.02;;
40453;SDS011;26160;51.858;4.398;2023-07-09T06:37:21;13.85;;;11.73;;
40453;SDS011;26160;51.858;4.398;2023-07-09T06:39:47;14.18;;;11.40;;
40453;SDS011;26160;51.858;4.398;2023-07-09T06:42:13;15.20;;;10.30;;
40453;SDS011;26160;51.858;4.398;2023-07-09T06:44:40;18.58;;;12.25;;
40453;SDS011;26160;51.858;4.398;2023-07-09T06:47:06;14.05;;;12.15;;
40453;SDS011;26160;51.858;4.398;2023-07-09T06:49:33;16.00;;;11.80;;
40453;SDS011;26160;51.858;4.398;2023-07-09T06:51:59;18.85;;;13.30;;
40453;SDS011;26160;51.858;4.398;2023-07-09T06:54:25;15.40;;;12.00;;
40453;SDS011;26160;51.858;4.398;2023-07-09T06:56:51;17.77;;;12.98;;
40453;SDS011;26160;51.858;4.398;2023-07-09T06:59:18;19.33;;;14.35;;
40453;SDS011;26160;51.858;4.398;2023-07-09T07:01:53;17.40;;;13.35;;
40453;SDS011;26160;51.858;4.398;2023-07-09T07:04:20;15.68;;;11.98;;
40453;SDS011;26160;51.858;4.398;2023-07-09T07:06:46;16.70;;;12.00;;
40453;SDS011;26160;51.858;4.398;2023-07-09T07:09:15;15.38;;;11.25;;
40453;SDS011;26160;51.858;4.398;2023-07-09T07:11:41;15.32;;;12.82;;
40453;SDS011;26160;51.858;4.398;2023-07-09T07:14:07;14.63;;;11.00;;
40453;SDS011;26160;51.858;4.398;2023-07-09T07:16:33;13.65;;;9.02;;
40453;SDS011;26160;51.858;4.398;2023-07-09T07:18:59;16.00;;;10.98;;
40453;SDS011;26160;51.858;4.398;2023-07-09T07:21:25;14.60;;;10.65;;
40453;SDS011;26160;51.858;4.398;2023-07-09T07:23:52;11.95;;;9.75;;
40453;SDS011;26160;51.858;4.398;2023-07-09T07:26:18;9.35;;;8.35;;
40453;SDS011;26160;51.858;4.398;2023-07-09T07:28:45;10.38;;;8.13;;
40453;SDS011;26160;51.858;4.398;2023-07-09T07:31:12;10.68;;;6.75;;
40453;SDS011;26160;51.858;4.398;2023-07-09T07:33:39;8.70;;;5.80;;
40453;SDS011;26160;51.858;4.398;2023-07-09T07:36:07;10.93;;;5.95;;
40453;SDS011;26160;51.858;4.398;2023-07-09T07:38:34;7.65;;;5.65;;
40453;SDS011;26160;51.858;4.398;2023-07-09T07:41:00;9.55;;;6.15;;
40453;SDS011;26160;51.858;4.398;2023-07-09T07:43:27;8.10;;;5.78;;
40453;SDS011;26160;51.858;4.398;2023-07-09T07:45:53;11.13;;;5.95;;
40453;SDS011;26160;51.858;4.398;2023-07-09T07:48:20;10.23;;;5.78;;
40453;SDS011;26160;51.858;4.398;2023-07-09T07:50:46;8.60;;;5.65;;
40453;SDS011;26160;51.858;4.398;2023-07-09T07:53:14;9.30;;;5.68;;
40453;SDS011;26160;51.858;4.398;2023-07-09T07:55:41;12.15;;;6.05;;
40453;SDS011;26160;51.858;4.398;2023-07-09T07:58:11;10.23;;;6.20;;
40453;SDS011;26160;51.858;4.398;2023-07-09T08:00:39;9.18;;;6.30;;
40453;SDS011;26160;51.858;4.398;2023-07-09T08:03:05;9.75;;;5.78;;
40453;SDS011;26160;51.858;4.398;2023-07-09T08:05:32;7.90;;;5.68;;
40453;SDS011;26160;51.858;4.398;2023-07-09T08:07:58;10.43;;;6.28;;
40453;SDS011;26160;51.858;4.398;2023-07-09T08:10:24;9.15;;;5.38;;
40453;SDS011;26160;51.858;4.398;2023-07-09T08:12:50;10.15;;;5.68;;
40453;SDS011;26160;51.858;4.398;2023-07-09T08:15:16;9.35;;;5.50;;
40453;SDS011;26160;51.858;4.398;2023-07-09T08:17:43;10.38;;;6.22;;
40453;SDS011;26160;51.858;4.398;2023-07-09T08:20:09;10.32;;;5.32;;
40453;SDS011;26160;51.858;4.398;2023-07-09T08:22:35;12.68;;;6.63;;
40453;SDS011;26160;51.858;4.398;2023-07-09T08:25:02;9.18;;;5.30;;
40453;SDS011;26160;51.858;4.398;2023-07-09T08:27:28;9.55;;;5.55;;
40453;SDS011;26160;51.858;4.398;2023-07-09T08:29:54;6.95;;;5.45;;
40453;SDS011;26160;51.858;4.398;2023-07-09T08:32:20;10.07;;;5.00;;
40453;SDS011;26160;51.858;4.398;2023-07-09T08:34:46;7.85;;;5.85;;
40453;SDS011;26160;51.858;4.398;2023-07-09T08:37:13;8.70;;;5.25;;
40453;SDS011;26160;51.858;4.398;2023-07-09T08:39:39;10.38;;;5.28;;
40453;SDS011;26160;51.858;4.398;2023-07-09T08:42:07;12.23;;;5.97;;
40453;SDS011;26160;51.858;4.398;2023-07-09T08:50:15;9.02;;;5.28;;
40453;SDS011;26160;51.858;4.398;2023-07-09T08:52:48;6.72;;;5.22;;
40453;SDS011;26160;51.858;4.398;2023-07-09T08:55:17;8.02;;;5.13;;
40453;SDS011;26160;51.858;4.398;2023-07-09T08:57:52;7.25;;;5.00;;
40453;SDS011;26160;51.858;4.398;2023-07-09T09:03:26;8.25;;;4.50;;
40453;SDS011;26160;51.858;4.398;2023-07-09T09:06:13;6.22;;;4.13;;
40453;SDS011;26160;51.858;4.398;2023-07-09T09:12:21;6.32;;;4.22;;
40453;SDS011;26160;51.858;4.398;2023-07-09T09:14:57;9.48;;;4.32;;
40453;SDS011;26160;51.858;4.398;2023-07-09T09:17:30;5.63;;;4.50;;
40453;SDS011;26160;51.858;4.398;2023-07-09T09:20:01;5.45;;;3.90;;
40453;SDS011;26160;51.858;4.398;2023-07-09T09:22:36;7.22;;;3.58;;
40453;SDS011;26160;51.858;4.398;2023-07-09T09:27:41;6.50;;;3.78;;
40453;SDS011;26160;51.858;4.398;2023-07-09T09:30:14;5.60;;;3.70;;
40453;SDS011;26160;51.858;4.398;2023-07-09T09:32:42;4.10;;;3.22;;
40453;SDS011;26160;51.858;4.398;2023-07-09T09:35:11;4.53;;;2.90;;
40453;SDS011;26160;51.858;4.398;2023-07-09T09:37:39;6.22;;;3.53;;
40453;SDS011;26160;51.858;4.398;2023-07-09T09:40:08;4.28;;;3.53;;
40453;SDS011;26160;51.858;4.398;2023-07-09T09:42:34;6.60;;;3.00;;
40453;SDS011;26160;51.858;4.398;2023-07-09T09:45:01;5.45;;;3.10;;
40453;SDS011;26160;51.858;4.398;2023-07-09T09:47:28;5.47;;;3.30;;
40453;SDS011;26160;51.858;4.398;2023-07-09T09:49:54;4.90;;;2.88;;
40453;SDS011;26160;51.858;4.398;2023-07-09T09:52:20;5.75;;;3.28;;
40453;SDS011;26160;51.858;4.398;2023-07-09T09:54:55;6.03;;;3.50;;
40453;SDS011;26160;51.858;4.398;2023-07-09T09:57:27;4.78;;;3.17;;
40453;SDS011;26160;51.858;4.398;2023-07-09T09:59:54;5.07;;;3.30;;
40453;SDS011;26160;51.858;4.398;2023-07-09T10:02:21;4.88;;;2.80;;
40453;SDS011;26160;51.858;4.398;2023-07-09T10:04:49;6.78;;;3.28;;
40453;SDS011;26160;51.858;4.398;2023-07-09T10:07:27;4.28;;;3.17;;
40453;SDS011;26160;51.858;4.398;2023-07-09T10:09:59;4.10;;;2.80;;
40453;SDS011;26160;51.858;4.398;2023-07-09T10:20:25;6.00;;;2.78;;
40453;SDS011;26160;51.858;4.398;2023-07-09T10:23:00;4.75;;;2.80;;
40453;SDS011;26160;51.858;4.398;2023-07-09T10:34:25;6.72;;;2.60;;
40453;SDS011;26160;51.858;4.398;2023-07-09T10:39:42;4.35;;;2.50;;
40453;SDS011;26160;51.858;4.398;2023-07-09T10:42:18;6.28;;;2.53;;
40453;SDS011;26160;51.858;4.398;2023-07-09T10:44:48;4.90;;;2.90;;
40453;SDS011;26160;51.858;4.398;2023-07-09T10:47:30;4.90;;;2.47;;
40453;SDS011;26160;51.858;4.398;2023-07-09T10:50:00;5.70;;;3.10;;
40453;SDS011;26160;51.858;4.398;2023-07-09T10:52:33;4.38;;;2.63;;
40453;SDS011;26160;51.858;4.398;2023-07-09T10:55:05;6.90;;;2.72;;
40453;SDS011;26160;51.858;4.398;2023-07-09T10:57:50;5.00;;;2.92;;
40453;SDS011;26160;51.858;4.398;2023-07-09T11:00:23;3.35;;;2.63;;
40453;SDS011;26160;51.858;4.398;2023-07-09T11:03:00;3.75;;;2.33;;
40453;SDS011;26160;51.858;4.398;2023-07-09T11:05:31;3.95;;;2.75;;
40453;SDS011;26160;51.858;4.398;2023-07-09T11:08:03;3.47;;;2.83;;
40453;SDS011;26160;51.858;4.398;2023-07-09T11:16:07;4.47;;;2.70;;
40453;SDS011;26160;51.858;4.398;2023-07-09T11:18:41;3.35;;;2.78;;
40453;SDS011;26160;51.858;4.398;2023-07-09T11:21:18;4.18;;;2.45;;
40453;SDS011;26160;51.858;4.398;2023-07-09T11:23:46;8.32;;;2.63;;
40453;SDS011;26160;51.858;4.398;2023-07-09T11:26:23;5.25;;;2.78;;
40453;SDS011;26160;51.858;4.398;2023-07-09T11:28:54;3.60;;;2.60;;
40453;SDS011;26160;51.858;4.398;2023-07-09T11:36:33;5.30;;;2.88;;
40453;SDS011;26160;51.858;4.398;2023-07-09T11:42:01;4.30;;;2.63;;
40453;SDS011;26160;51.858;4.398;2023-07-09T11:44:32;4.35;;;2.50;;
40453;SDS011;26160;51.858;4.398;2023-07-09T11:47:45;7.07;;;2.88;;
40453;SDS011;26160;51.858;4.398;2023-07-09T11:50:13;5.38;;;2.67;;
40453;SDS011;26160;51.858;4.398;2023-07-09T11:52:50;5.28;;;2.67;;
40453;SDS011;26160;51.858;4.398;2023-07-09T11:58:15;4.57;;;2.70;;
40453;SDS011;26160;51.858;4.398;2023-07-09T12:03:20;4.65;;;2.95;;
40453;SDS011;26160;51.858;4.398;2023-07-09T12:05:54;4.82;;;3.40;;
40453;SDS011;26160;51.858;4.398;2023-07-09T12:08:26;13.70;;;3.83;;
40453;SDS011;26160;51.858;4.398;2023-07-09T12:10:59;11.10;;;4.28;;
40453;SDS011;26160;51.858;4.398;2023-07-09T12:13:25;10.93;;;3.60;;
40453;SDS011;26160;51.858;4.398;2023-07-09T12:15:51;9.95;;;4.03;;
40453;SDS011;26160;51.858;4.398;2023-07-09T12:18:18;13.15;;;4.28;;
40453;SDS011;26160;51.858;4.398;2023-07-09T12:20:53;9.73;;;4.43;;
40453;SDS011;26160;51.858;4.398;2023-07-09T12:23:25;8.30;;;4.00;;
40453;SDS011;26160;51.858;4.398;2023-07-09T12:26:01;10.88;;;4.60;;
40453;SDS011;26160;51.858;4.398;2023-07-09T12:28:29;12.73;;;5.20;;
40453;SDS011;26160;51.858;4.398;2023-07-09T12:30:56;17.88;;;5.30;;
40453;SDS011;26160;51.858;4.398;2023-07-09T12:33:23;13.15;;;4.95;;
40453;SDS011;26160;51.858;4.398;2023-07-09T12:35:54;16.40;;;5.97;;
40453;SDS011;26160;51.858;4.398;2023-07-09T12:38:44;14.77;;;5.07;;
40453;SDS011;26160;51.858;4.398;2023-07-09T12:41:22;13.90;;;4.72;;
40453;SDS011;26160;51.858;4.398;2023-07-09T12:43:55;15.63;;;4.57;;
40453;SDS011;26160;51.858;4.398;2023-07-09T12:46:22;15.85;;;5.00;;
40453;SDS011;26160;51.858;4.398;2023-07-09T12:48:52;10.85;;;4.13;;
40453;SDS011;26160;51.858;4.398;2023-07-09T12:51:22;8.27;;;4.25;;
40453;SDS011;26160;51.858;4.398;2023-07-09T12:54:13;10.90;;;4.18;;
40453;SDS011;26160;51.858;4.398;2023-07-09T12:56:41;8.15;;;4.10;;
40453;SDS011;26160;51.858;4.398;2023-07-09T13:02:13;10.95;;;4.35;;
40453;SDS011;26160;51.858;4.398;2023-07-09T13:04:40;11.18;;;4.18;;
40453;SDS011;26160;51.858;4.398;2023-07-09T13:09:55;9.75;;;5.00;;
40453;SDS011;26160;51.858;4.398;2023-07-09T13:12:31;12.05;;;5.57;;
40453;SDS011;26160;51.858;4.398;2023-07-09T13:14:59;15.20;;;5.45;;
40453;SDS011;26160;51.858;4.398;2023-07-09T13:17:28;12.93;;;6.10;;
40453;SDS011;26160;51.858;4.398;2023-07-09T13:19:56;15.27;;;7.20;;
40453;SDS011;26160;51.858;4.398;2023-07-09T13:22:22;14.75;;;6.80;;
40453;SDS011;26160;51.858;4.398;2023-07-09T13:24:50;13.68;;;6.68;;
40453;SDS011;26160;51.858;4.398;2023-07-09T13:27:16;13.98;;;6.70;;
40453;SDS011;26160;51.858;4.398;2023-07-09T13:29:43;11.13;;;5.50;;
40453;SDS011;26160;51.858;4.398;2023-07-09T13:32:10;9.65;;;5.30;;
40453;SDS011;26160;51.858;4.398;2023-07-09T13:34:37;12.82;;;5.25;;
40453;SDS011;26160;51.858;4.398;2023-07-09T13:37:05;13.77;;;6.05;;
40453;SDS011;26160;51.858;4.398;2023-07-09T13:39:34;10.85;;;5.45;;
40453;SDS011;26160;51.858;4.398;2023-07-09T13:42:00;11.07;;;4.68;;
40453;SDS011;26160;51.858;4.398;2023-07-09T13:44:30;16.75;;;5.32;;
40453;SDS011;26160;51.858;4.398;2023-07-09T13:46:56;12.23;;;4.97;;
40453;SDS011;26160;51.858;4.398;2023-07-09T13:49:26;12.27;;;4.85;;
40453;SDS011;26160;51.858;4.398;2023-07-09T13:51:54;8.90;;;4.78;;
40453;SDS011;26160;51.858;4.398;2023-07-09T13:54:26;8.35;;;4.53;;
40453;SDS011;26160;51.858;4.398;2023-07-09T13:57:06;5.70;;;3.75;;
40453;SDS011;26160;51.858;4.398;2023-07-09T13:59:38;8.90;;;4.60;;
40453;SDS011;26160;51.858;4.398;2023-07-09T14:02:12;9.55;;;4.32;;
40453;SDS011;26160;51.858;4.398;2023-07-09T14:04:45;21.67;;;7.63;;
40453;SDS011;26160;51.858;4.398;2023-07-09T14:07:31;15.85;;;6.35;;
40453;SDS011;26160;51.858;4.398;2023-07-09T14:10:04;13.32;;;5.68;;
40453;SDS011;26160;51.858;4.398;2023-07-09T14:12:32;11.13;;;5.65;;
40453;SDS011;26160;51.858;4.398;2023-07-09T14:15:01;13.88;;;6.57;;
40453;SDS011;26160;51.858;4.398;2023-07-09T14:17:27;19.77;;;9.40;;
40453;SDS011;26160;51.858;4.398;2023-07-09T14:19:54;25.92;;;10.70;;
40453;SDS011;26160;51.858;4.398;2023-07-09T14:22:21;24.65;;;11.48;;
40453;SDS011;26160;51.858;4.398;2023-07-09T14:24:52;23.77;;;11.15;;
40453;SDS011;26160;51.858;4.398;2023-07-09T14:27:18;24.27;;;12.43;;
40453;SDS011;26160;51.858;4.398;2023-07-09T14:29:44;17.83;;;11.75;;
40453;SDS011;26160;51.858;4.398;2023-07-09T14:32:25;20.45;;;10.50;;
40453;SDS011;26160;51.858;4.398;2023-07-09T14:35:00;20.98;;;8.55;;
40453;SDS011;26160;51.858;4.398;2023-07-09T14:37:29;12.18;;;7.50;;
40453;SDS011;26160;51.858;4.398;2023-07-09T14:39:55;14.82;;;7.90;;
40453;SDS011;26160;51.858;4.398;2023-07-09T14:42:21;11.45;;;7.03;;
40453;SDS011;26160;51.858;4.398;2023-07-09T14:44:48;14.88;;;7.78;;
40453;SDS011;26160;51.858;4.398;2023-07-09T14:47:18;16.95;;;8.82;;
40453;SDS011;26160;51.858;4.398;2023-07-09T14:49:46;13.85;;;7.63;;
40453;SDS011;26160;51.858;4.398;2023-07-09T14:52:14;19.50;;;8.95;;
40453;SDS011;26160;51.858;4.398;2023-07-09T14:54:43;15.10;;;8.75;;
40453;SDS011;26160;51.858;4.398;2023-07-09T14:57:20;13.70;;;8.88;;
40453;SDS011;26160;51.858;4.398;2023-07-09T14:59:48;15.02;;;8.45;;
40453;SDS011;26160;51.858;4.398;2023-07-09T15:02:34;15.15;;;8.60;;
40453;SDS011;26160;51.858;4.398;2023-07-09T15:05:02;16.55;;;9.18;;
40453;SDS011;26160;51.858;4.398;2023-07-09T15:07:31;14.77;;;8.20;;
40453;SDS011;26160;51.858;4.398;2023-07-09T15:09:57;16.63;;;8.10;;
40453;SDS011;26160;51.858;4.398;2023-07-09T15:12:26;14.88;;;8.95;;
40453;SDS011;26160;51.858;4.398;2023-07-09T15:14:58;14.55;;;8.82;;
40453;SDS011;26160;51.858;4.398;2023-07-09T15:17:31;10.70;;;7.57;;
40453;SDS011;26160;51.858;4.398;2023-07-09T15:19:58;12.70;;;7.68;;
40453;SDS011;26160;51.858;4.398;2023-07-09T15:22:27;11.93;;;6.75;;
40453;SDS011;26160;51.858;4.398;2023-07-09T15:24:57;10.98;;;7.55;;
40453;SDS011;26160;51.858;4.398;2023-07-09T15:27:23;11.43;;;7.85;;
40453;SDS011;26160;51.858;4.398;2023-07-09T15:29:49;10.85;;;7.15;;
40453;SDS011;26160;51.858;4.398;2023-07-09T15:32:16;10.73;;;6.82;;
40453;SDS011;26160;51.858;4.398;2023-07-09T15:34:42;12.75;;;6.55;;
40453;SDS011;26160;51.858;4.398;2023-07-09T15:37:10;10.30;;;6.90;;
40453;SDS011;26160;51.858;4.398;2023-07-09T15:39:39;10.10;;;6.75;;
40453;SDS011;26160;51.858;4.398;2023-07-09T15:42:09;12.05;;;7.15;;
40453;SDS011;26160;51.858;4.398;2023-07-09T15:44:36;9.68;;;6.45;;
40453;SDS011;26160;51.858;4.398;2023-07-09T15:47:03;10.95;;;6.20;;
40453;SDS011;26160;51.858;4.398;2023-07-09T15:49:32;7.95;;;5.53;;
40453;SDS011;26160;51.858;4.398;2023-07-09T15:51:58;8.65;;;5.47;;